createdAt,value
2022-07-29T00:02:19.219Z,99.90
2022-07-29T00:04:49.183Z,99.90
2022-07-29T00:07:18.482Z,99.90
2022-07-29T00:09:50.781Z,99.90
2022-07-29T00:12:21.401Z,99.90
2022-07-29T00:14:54.381Z,99.90
2022-07-29T00:17:22.959Z,99.90
2022-07-29T00:19:52.937Z,99.90
2022-07-29T00:22:21.470Z,99.90
2022-07-29T00:24:50.702Z,99.90
2022-07-29T00:27:19.361Z,99.90
2022-07-29T00:29:47.807Z,99.90
2022-07-29T00:32:16.375Z,99.90
2022-07-29T00:35:03.044Z,99.90
2022-07-29T00:37:33.486Z,99.90
2022-07-29T00:40:01.900Z,99.90
2022-07-29T00:42:30.254Z,99.90
2022-07-29T00:44:58.755Z,99.90
2022-07-29T00:47:27.176Z,99.90
2022-07-29T00:49:55.561Z,99.90
2022-07-29T00:52:24.092Z,99.90
2022-07-29T00:54:53.908Z,99.90
2022-07-29T00:57:22.588Z,99.90
2022-07-29T00:59:51.147Z,99.90
2022-07-29T01:02:19.815Z,99.90
2022-07-29T01:04:48.248Z,99.90
2022-07-29T01:07:17.310Z,99.90
2022-07-29T01:09:47.257Z,99.90
2022-07-29T01:12:19.292Z,99.90
2022-07-29T01:14:48.485Z,99.90
2022-07-29T01:17:20.496Z,99.90
2022-07-29T01:19:51.638Z,99.90
2022-07-29T01:22:28.936Z,99.90
2022-07-29T01:25:05.894Z,99.90
2022-07-29T01:27:44.441Z,99.90
2022-07-29T01:30:15.669Z,99.90
2022-07-29T01:32:45.385Z,99.90
2022-07-29T01:35:19.014Z,99.90
2022-07-29T01:37:49.524Z,99.90
2022-07-29T01:40:21.624Z,99.90
2022-07-29T01:42:52.851Z,99.90
2022-07-29T01:45:25.793Z,99.90
2022-07-29T01:47:59.016Z,99.90
2022-07-29T01:50:30.011Z,99.90
2022-07-29T01:53:01.089Z,99.90
2022-07-29T01:55:31.203Z,99.90
2022-07-29T01:58:00.395Z,99.90
2022-07-29T02:00:30.882Z,99.90
2022-07-29T02:03:01.005Z,99.90
2022-07-29T02:05:29.952Z,99.90
2022-07-29T02:07:58.515Z,99.90
2022-07-29T02:10:32.191Z,99.90
2022-07-29T02:13:02.078Z,99.90
2022-07-29T02:15:34.504Z,99.90
2022-07-29T02:18:04.349Z,99.90
2022-07-29T02:20:33.095Z,99.90
2022-07-29T02:23:02.845Z,99.90
2022-07-29T02:25:36.831Z,99.90
2022-07-29T02:28:06.715Z,99.90
2022-07-29T02:30:38.533Z,99.90
2022-07-29T02:33:08.111Z,99.90
2022-07-29T02:35:36.672Z,99.90
2022-07-29T02:38:23.147Z,99.90
2022-07-29T02:40:52.956Z,99.90
2022-07-29T02:43:22.498Z,99.90
2022-07-29T02:45:54.195Z,99.90
2022-07-29T02:48:24.934Z,99.90
2022-07-29T02:50:56.913Z,99.90
2022-07-29T02:53:27.547Z,99.90
2022-07-29T02:55:58.784Z,99.90
2022-07-29T02:58:29.680Z,99.90
2022-07-29T03:01:00.782Z,99.90
2022-07-29T03:03:32.265Z,99.90
2022-07-29T03:06:02.396Z,99.90
2022-07-29T03:08:30.972Z,99.90
2022-07-29T03:10:59.824Z,99.90
2022-07-29T03:13:28.430Z,99.90
2022-07-29T03:15:57.849Z,99.90
2022-07-29T03:18:28.275Z,99.90
2022-07-29T03:20:56.756Z,99.90
2022-07-29T03:23:27.221Z,99.90
2022-07-29T03:26:01.665Z,99.90
2022-07-29T03:28:29.935Z,99.90
2022-07-29T03:30:58.327Z,99.90
2022-07-29T03:33:30.173Z,99.90
2022-07-29T03:35:59.143Z,99.90
2022-07-29T03:38:29.313Z,99.90
2022-07-29T03:40:59.255Z,99.90
2022-07-29T03:43:29.274Z,99.90
2022-07-29T03:46:00.285Z,99.90
2022-07-29T03:48:30.575Z,99.90
2022-07-29T03:50:59.007Z,99.90
2022-07-29T03:53:27.443Z,99.90
2022-07-29T03:55:56.801Z,99.90
2022-07-29T03:58:25.823Z,99.90
2022-07-29T04:00:55.160Z,99.90
2022-07-29T04:03:23.899Z,99.90
2022-07-29T04:06:07.322Z,99.90
2022-07-29T04:08:36.043Z,99.90
2022-07-29T04:11:04.955Z,99.90
2022-07-29T04:13:33.394Z,99.90
2022-07-29T04:16:01.795Z,99.90
2022-07-29T04:18:30.226Z,99.90
2022-07-29T04:21:01.946Z,99.90
2022-07-29T04:23:33.581Z,99.90
2022-07-29T04:26:02.292Z,99.90
2022-07-29T04:28:30.753Z,99.90
2022-07-29T04:30:59.188Z,99.90
2022-07-29T04:33:27.768Z,99.90
2022-07-29T04:35:56.129Z,99.90
2022-07-29T04:38:24.549Z,99.90
2022-07-29T04:40:54.559Z,99.90
2022-07-29T04:43:23.374Z,99.90
2022-07-29T04:45:52.157Z,99.90
2022-07-29T04:48:25.358Z,99.90
2022-07-29T04:50:56.838Z,99.90
2022-07-29T04:53:25.358Z,99.90
2022-07-29T04:55:55.281Z,99.90
2022-07-29T04:58:24.745Z,99.90
2022-07-29T05:00:53.230Z,99.90
2022-07-29T05:03:21.652Z,99.90
2022-07-29T05:05:50.001Z,99.90
2022-07-29T05:08:18.681Z,99.90
2022-07-29T05:10:47.500Z,99.90
2022-07-29T05:13:17.383Z,99.90
2022-07-29T05:15:45.969Z,99.90
2022-07-29T05:18:15.237Z,99.90
2022-07-29T05:20:43.858Z,99.90
2022-07-29T05:23:13.951Z,99.90
2022-07-29T05:25:44.325Z,99.90
2022-07-29T05:28:13.264Z,99.90
2022-07-29T05:30:43.366Z,99.90
2022-07-29T05:33:34.307Z,99.90
2022-07-29T05:36:01.135Z,99.90
2022-07-29T05:38:29.704Z,99.90
2022-07-29T05:40:59.111Z,99.90
2022-07-29T05:43:27.521Z,99.90
2022-07-29T05:45:57.932Z,99.90
2022-07-29T05:48:26.451Z,99.90
2022-07-29T05:50:55.274Z,99.90
2022-07-29T05:53:23.835Z,99.90
2022-07-29T05:55:53.076Z,99.90
2022-07-29T05:58:21.737Z,99.90
2022-07-29T06:00:50.073Z,99.90
2022-07-29T06:03:19.901Z,99.90
2022-07-29T06:05:49.291Z,99.90
2022-07-29T06:08:17.670Z,99.90
2022-07-29T06:10:46.673Z,99.90
2022-07-29T06:13:17.134Z,99.90
2022-07-29T06:15:45.678Z,99.90
2022-07-29T06:18:14.740Z,99.90
2022-07-29T06:20:44.900Z,99.90
2022-07-29T06:23:13.312Z,99.90
2022-07-29T06:25:42.640Z,99.90
2022-07-29T06:28:11.070Z,99.90
2022-07-29T06:30:39.482Z,99.90
2022-07-29T06:33:08.408Z,99.90
2022-07-29T06:35:42.291Z,99.90
2022-07-29T06:38:31.416Z,99.90
2022-07-29T06:41:03.527Z,99.90
2022-07-29T06:43:35.273Z,99.90
2022-07-29T06:46:14.944Z,99.90
2022-07-29T06:48:44.349Z,99.90
2022-07-29T06:51:13.647Z,99.90
2022-07-29T06:54:00.024Z,99.90
2022-07-29T06:56:31.766Z,99.90
2022-07-29T06:59:00.320Z,99.90
2022-07-29T07:01:30.211Z,99.90
2022-07-29T07:03:58.781Z,99.90
2022-07-29T07:06:27.311Z,99.90
2022-07-29T07:08:57.111Z,99.90
2022-07-29T07:11:25.730Z,99.90
2022-07-29T07:13:57.016Z,99.90
2022-07-29T07:16:27.821Z,99.90
2022-07-29T07:18:56.255Z,99.90
2022-07-29T07:21:24.720Z,99.90
2022-07-29T07:23:53.039Z,99.90
2022-07-29T07:26:22.949Z,99.90
2022-07-29T07:28:51.391Z,99.90
2022-07-29T07:31:19.843Z,99.90
2022-07-29T07:33:48.508Z,99.90
2022-07-29T07:36:16.899Z,99.30
2022-07-29T07:38:45.339Z,99.00
2022-07-29T07:41:13.798Z,97.20
2022-07-29T07:43:43.794Z,97.10
2022-07-29T07:46:12.352Z,96.70
2022-07-29T07:48:40.964Z,96.00
2022-07-29T07:51:09.631Z,96.00
2022-07-29T07:53:38.030Z,94.90
2022-07-29T07:56:12.473Z,95.10
2022-07-29T07:58:41.350Z,94.20
2022-07-29T08:01:11.397Z,94.50
2022-07-29T08:03:40.277Z,94.20
2022-07-29T08:06:09.939Z,93.60
2022-07-29T08:08:38.420Z,93.70
2022-07-29T08:11:09.707Z,93.10
2022-07-29T08:13:39.023Z,92.80
2022-07-29T08:16:18.223Z,92.50
2022-07-29T08:18:48.550Z,91.40
2022-07-29T08:21:17.493Z,91.40
2022-07-29T08:23:57.991Z,91.60
2022-07-29T08:26:28.317Z,91.70
2022-07-29T08:28:56.790Z,90.80
2022-07-29T08:31:27.286Z,90.60
2022-07-29T08:33:57.503Z,90.20
2022-07-29T08:36:27.297Z,90.40
2022-07-29T08:38:55.629Z,90.10
2022-07-29T08:41:24.429Z,89.40
2022-07-29T08:43:53.510Z,89.20
2022-07-29T08:46:22.147Z,89.80
2022-07-29T08:48:50.886Z,89.30
2022-07-29T08:51:22.339Z,88.60
2022-07-29T08:53:51.730Z,88.50
2022-07-29T08:56:21.861Z,87.40
2022-07-29T08:58:52.382Z,86.10
2022-07-29T09:01:35.882Z,85.70
2022-07-29T09:04:06.538Z,83.80
2022-07-29T09:06:39.270Z,84.20
2022-07-29T09:09:07.814Z,83.10
2022-07-29T09:11:36.400Z,83.10
2022-07-29T09:14:05.070Z,82.00
2022-07-29T09:17:00.885Z,81.60
2022-07-29T09:19:30.849Z,80.00
2022-07-29T09:22:03.187Z,80.30
2022-07-29T09:24:40.875Z,80.30
2022-07-29T09:27:27.627Z,78.00
2022-07-29T09:30:00.423Z,78.50
2022-07-29T09:32:29.391Z,78.40
2022-07-29T09:35:16.170Z,79.30
2022-07-29T09:37:46.410Z,78.50
2022-07-29T09:40:17.093Z,77.80
2022-07-29T09:42:45.730Z,78.40
2022-07-29T09:45:14.382Z,77.80
2022-07-29T09:47:46.065Z,76.40
2022-07-29T09:50:15.613Z,75.50
2022-07-29T09:52:49.841Z,74.20
2022-07-29T09:55:19.777Z,75.40
2022-07-29T09:57:48.512Z,74.50
2022-07-29T10:00:19.073Z,72.90
2022-07-29T10:02:48.143Z,73.60
2022-07-29T10:05:21.631Z,72.20
2022-07-29T10:07:54.203Z,72.40
2022-07-29T10:10:27.851Z,71.30
2022-07-29T10:12:57.180Z,72.70
2022-07-29T10:15:27.142Z,71.60
2022-07-29T10:17:56.220Z,70.40
2022-07-29T10:20:25.112Z,70.20
2022-07-29T10:22:55.280Z,71.20
2022-07-29T10:25:24.060Z,70.00
2022-07-29T10:27:53.463Z,69.00
2022-07-29T10:30:23.051Z,68.20
2022-07-29T10:33:00.123Z,68.20
2022-07-29T10:35:41.319Z,66.40
2022-07-29T10:38:17.953Z,65.80
2022-07-29T10:41:08.661Z,64.40
2022-07-29T10:43:39.341Z,62.20
2022-07-29T10:46:11.295Z,64.70
2022-07-29T10:49:06.551Z,62.20
2022-07-29T10:51:56.018Z,62.60
2022-07-29T10:54:39.711Z,61.20
2022-07-29T10:57:21.715Z,60.60
2022-07-29T11:00:10.151Z,60.80
2022-07-29T11:02:52.366Z,60.10
2022-07-29T11:05:21.784Z,60.40
2022-07-29T11:08:09.493Z,61.00
2022-07-29T11:10:42.992Z,60.50
2022-07-29T11:13:14.615Z,61.20
2022-07-29T11:15:55.240Z,61.80
2022-07-29T11:18:24.007Z,61.60
2022-07-29T11:20:54.941Z,60.10
2022-07-29T11:23:34.050Z,60.40
2022-07-29T11:26:23.311Z,59.20
2022-07-29T11:28:56.501Z,59.70
2022-07-29T11:31:35.068Z,59.00
2022-07-29T11:34:20.814Z,59.30
2022-07-29T11:37:07.941Z,58.10
2022-07-29T11:39:37.681Z,58.80
2022-07-29T11:42:28.322Z,58.80
2022-07-29T11:45:43.189Z,59.00
2022-07-29T11:48:29.687Z,58.80
2022-07-29T11:50:51.912Z,58.50
2022-07-29T11:53:20.160Z,58.70
2022-07-29T11:55:55.990Z,58.60
2022-07-29T11:58:25.924Z,58.70
2022-07-29T12:00:56.688Z,58.90
2022-07-29T12:03:35.285Z,59.00
2022-07-29T12:06:07.961Z,58.00
2022-07-29T12:08:43.844Z,58.50
2022-07-29T12:11:22.990Z,58.40
2022-07-29T12:13:53.322Z,58.60
2022-07-29T12:16:29.533Z,58.70
2022-07-29T12:18:59.333Z,58.90
2022-07-29T12:21:28.857Z,58.70
2022-07-29T12:24:03.505Z,58.70
2022-07-29T12:26:35.708Z,59.00
2022-07-29T12:29:04.340Z,59.80
2022-07-29T12:31:43.216Z,59.30
2022-07-29T12:34:14.086Z,58.90
2022-07-29T12:36:43.262Z,59.10
2022-07-29T12:39:12.534Z,58.70
2022-07-29T12:41:41.021Z,58.70
2022-07-29T12:44:09.665Z,59.10
2022-07-29T12:46:38.099Z,59.50
2022-07-29T12:49:10.531Z,60.00
2022-07-29T12:51:39.830Z,59.50
2022-07-29T12:54:09.501Z,60.30
2022-07-29T12:56:45.569Z,59.20
2022-07-29T12:59:15.181Z,59.50
2022-07-29T13:01:43.890Z,59.80
2022-07-29T13:04:13.852Z,60.00
2022-07-29T13:06:45.736Z,59.50
2022-07-29T13:09:15.021Z,59.60
2022-07-29T13:11:48.322Z,59.30
2022-07-29T13:14:32.846Z,59.10
2022-07-29T13:17:05.967Z,59.40
2022-07-29T13:19:37.679Z,59.90
2022-07-29T13:22:06.885Z,59.30
2022-07-29T13:24:35.552Z,59.50
2022-07-29T13:27:05.617Z,58.90
2022-07-29T13:29:34.769Z,58.90
2022-07-29T13:32:03.320Z,58.70
2022-07-29T13:34:32.258Z,58.20
2022-07-29T13:37:01.997Z,57.80
2022-07-29T13:39:31.277Z,58.60
2022-07-29T13:42:00.472Z,58.70
2022-07-29T13:44:29.065Z,58.60
2022-07-29T13:46:57.564Z,58.60
2022-07-29T13:49:26.304Z,59.20
2022-07-29T13:51:54.768Z,59.70
2022-07-29T13:54:24.980Z,58.80
2022-07-29T13:56:55.772Z,58.70
2022-07-29T13:59:24.149Z,59.00
2022-07-29T14:01:52.719Z,59.40
2022-07-29T14:04:21.293Z,59.20
2022-07-29T14:06:50.721Z,58.90
2022-07-29T14:09:19.826Z,58.60
2022-07-29T14:11:51.343Z,59.00
2022-07-29T14:14:19.806Z,58.80
2022-07-29T14:16:52.215Z,58.60
2022-07-29T14:19:20.949Z,59.10
2022-07-29T14:21:49.322Z,59.20
2022-07-29T14:24:23.094Z,59.60
2022-07-29T14:26:53.896Z,59.20
2022-07-29T14:29:22.462Z,59.00
2022-07-29T14:31:51.305Z,58.70
2022-07-29T14:34:19.778Z,58.90
2022-07-29T14:36:48.239Z,58.80
2022-07-29T14:39:17.511Z,58.90
2022-07-29T14:41:45.910Z,58.90
2022-07-29T14:44:15.748Z,59.20
2022-07-29T14:46:44.222Z,59.70
2022-07-29T14:49:17.055Z,59.70
2022-07-29T14:51:45.639Z,59.40
2022-07-29T14:54:14.030Z,59.30
2022-07-29T14:56:46.543Z,60.10
2022-07-29T14:59:22.542Z,59.40
2022-07-29T15:01:51.256Z,59.40
2022-07-29T15:04:20.648Z,59.30
2022-07-29T15:06:49.049Z,59.40
2022-07-29T15:09:17.809Z,59.70
2022-07-29T15:11:46.188Z,59.40
2022-07-29T15:14:14.659Z,59.40
2022-07-29T15:16:47.989Z,59.50
2022-07-29T15:19:16.744Z,59.80
2022-07-29T15:21:48.454Z,60.10
2022-07-29T15:24:28.052Z,60.10
2022-07-29T15:26:57.772Z,60.20
2022-07-29T15:29:26.173Z,60.40
2022-07-29T15:31:56.915Z,61.10
2022-07-29T15:34:25.653Z,60.50
2022-07-29T15:36:55.100Z,61.10
2022-07-29T15:39:23.568Z,61.10
2022-07-29T15:41:52.251Z,61.00
2022-07-29T15:44:21.087Z,61.10
2022-07-29T15:47:07.741Z,61.10
2022-07-29T15:49:47.038Z,65.40
2022-07-29T15:52:17.692Z,70.30
2022-07-29T15:54:46.110Z,74.40
2022-07-29T15:57:14.583Z,78.00
2022-07-29T15:59:43.150Z,81.00
2022-07-29T16:02:11.793Z,85.00
2022-07-29T16:04:41.697Z,89.00
2022-07-29T16:07:10.222Z,90.30
2022-07-29T16:09:38.905Z,91.80
2022-07-29T16:12:15.013Z,93.90
2022-07-29T16:14:45.442Z,96.10
2022-07-29T16:17:14.785Z,98.20
2022-07-29T16:19:45.703Z,99.90
2022-07-29T16:22:14.243Z,99.90
2022-07-29T16:24:42.751Z,99.90
2022-07-29T16:27:11.211Z,99.90
2022-07-29T16:29:39.889Z,99.90
2022-07-29T16:32:09.027Z,99.90
2022-07-29T16:34:37.609Z,99.90
2022-07-29T16:37:07.541Z,99.90
2022-07-29T16:39:36.063Z,99.90
2022-07-29T16:42:05.589Z,99.90
2022-07-29T16:44:34.827Z,99.90
2022-07-29T16:47:03.915Z,99.90
2022-07-29T16:49:33.145Z,99.90
2022-07-29T16:52:02.131Z,99.90
2022-07-29T16:54:32.206Z,99.90
2022-07-29T16:57:02.441Z,99.90
2022-07-29T16:59:31.057Z,99.90
2022-07-29T17:02:02.722Z,99.90
2022-07-29T17:04:32.098Z,99.90
2022-07-29T17:07:01.717Z,99.90
2022-07-29T17:09:32.898Z,99.90
2022-07-29T17:12:01.403Z,99.90
2022-07-29T17:14:31.181Z,99.90
2022-07-29T17:17:02.187Z,99.90
2022-07-29T17:19:32.148Z,99.90
2022-07-29T17:22:10.514Z,99.90
2022-07-29T17:24:44.219Z,99.90
2022-07-29T17:27:12.641Z,99.90
2022-07-29T17:29:41.639Z,99.90
2022-07-29T17:32:10.462Z,99.90
2022-07-29T17:34:39.583Z,99.90
2022-07-29T17:37:09.619Z,99.90
2022-07-29T17:39:40.863Z,99.90
2022-07-29T17:42:11.062Z,99.90
2022-07-29T17:44:39.611Z,99.90
2022-07-29T17:47:15.669Z,99.90
2022-07-29T17:49:46.103Z,99.90
2022-07-29T17:52:16.305Z,99.90
2022-07-29T17:54:49.836Z,99.90
2022-07-29T17:57:20.293Z,99.90
2022-07-29T17:59:48.730Z,99.90
2022-07-29T18:02:18.195Z,99.90
2022-07-29T18:04:50.557Z,99.90
2022-07-29T18:07:20.724Z,99.90
2022-07-29T18:09:49.662Z,99.90
2022-07-29T18:12:20.932Z,99.90
2022-07-29T18:14:49.452Z,99.90
2022-07-29T18:17:18.554Z,99.90
2022-07-29T18:19:46.942Z,99.90
2022-07-29T18:22:15.885Z,99.90
2022-07-29T18:24:44.861Z,99.90
2022-07-29T18:27:13.841Z,99.90
2022-07-29T18:29:45.131Z,99.90
2022-07-29T18:32:20.103Z,99.90
2022-07-29T18:34:57.761Z,99.90
2022-07-29T18:38:02.111Z,99.90
2022-07-29T18:40:14.801Z,99.90
2022-07-29T18:42:43.770Z,99.90
2022-07-29T18:45:19.109Z,99.90
2022-07-29T18:47:49.560Z,99.90
2022-07-29T18:50:19.570Z,99.90
2022-07-29T18:52:48.091Z,99.90
2022-07-29T18:55:16.960Z,99.90
2022-07-29T18:57:56.251Z,99.90
2022-07-29T19:00:27.559Z,99.90
2022-07-29T19:02:57.924Z,99.90
2022-07-29T19:05:26.860Z,99.90
2022-07-29T19:07:56.634Z,99.90
2022-07-29T19:10:25.351Z,99.90
2022-07-29T19:12:54.553Z,99.90
2022-07-29T19:15:23.471Z,99.90
2022-07-29T19:17:57.702Z,99.90
2022-07-29T19:20:29.732Z,99.90
2022-07-29T19:22:58.803Z,99.90
2022-07-29T19:25:27.604Z,99.90
2022-07-29T19:27:56.401Z,99.90
2022-07-29T19:30:25.267Z,99.90
2022-07-29T19:32:55.460Z,99.90
2022-07-29T19:35:32.740Z,99.90
2022-07-29T19:38:01.973Z,99.90
2022-07-29T19:40:31.680Z,99.90
2022-07-29T19:43:00.931Z,99.90
2022-07-29T19:45:30.689Z,99.90
2022-07-29T19:48:05.491Z,99.90
2022-07-29T19:50:36.312Z,99.90
2022-07-29T19:53:05.231Z,99.90
2022-07-29T19:55:34.000Z,99.90
2022-07-29T19:58:04.730Z,99.90
2022-07-29T20:00:37.451Z,99.90
2022-07-29T20:03:10.370Z,99.90
2022-07-29T20:05:39.271Z,99.90
2022-07-29T20:08:08.130Z,99.90
2022-07-29T20:10:36.618Z,99.90
2022-07-29T20:13:05.611Z,99.90
2022-07-29T20:15:34.134Z,99.90
2022-07-29T20:18:04.239Z,99.90
2022-07-29T20:20:35.561Z,99.90
2022-07-29T20:23:05.711Z,99.90
2022-07-29T20:25:37.121Z,99.90
2022-07-29T20:28:05.889Z,99.90
2022-07-29T20:30:34.506Z,99.90
2022-07-29T20:33:07.241Z,99.90
2022-07-29T20:35:37.781Z,99.90
2022-07-29T20:38:07.612Z,99.90
2022-07-29T20:40:37.641Z,99.90
2022-07-29T20:43:09.310Z,99.90
2022-07-29T20:45:56.574Z,99.90
2022-07-29T20:48:27.470Z,99.90
2022-07-29T20:54:36.933Z,99.90
2022-07-29T21:00:33.915Z,99.90
2022-07-29T21:03:05.143Z,99.90
2022-07-29T21:05:34.823Z,99.90
2022-07-29T21:08:05.921Z,99.90
2022-07-29T21:10:34.371Z,99.90
2022-07-29T21:13:04.891Z,99.90
2022-07-29T21:15:33.723Z,99.90
2022-07-29T21:18:03.177Z,99.90
2022-07-29T21:20:33.820Z,99.90
2022-07-29T21:23:02.796Z,99.90
2022-07-29T21:25:34.612Z,99.90
2022-07-29T21:28:27.905Z,99.90
2022-07-29T21:30:57.256Z,99.90
2022-07-29T21:33:26.380Z,99.90
2022-07-29T21:36:20.171Z,99.90
2022-07-29T21:38:44.818Z,99.90
2022-07-29T21:41:15.770Z,99.90
2022-07-29T21:43:44.322Z,99.90
2022-07-29T21:46:16.866Z,99.90
2022-07-29T21:48:46.014Z,99.90
2022-07-29T21:51:16.237Z,99.90
2022-07-29T21:53:45.119Z,99.90
2022-07-29T21:56:15.254Z,99.90
2022-07-29T21:58:47.824Z,99.90
2022-07-29T22:01:18.819Z,99.90
2022-07-29T22:03:47.575Z,99.90
2022-07-29T22:06:20.332Z,99.90
2022-07-29T22:08:49.350Z,99.90
2022-07-29T22:11:20.275Z,99.90
2022-07-29T22:13:49.384Z,99.90
2022-07-29T22:16:19.763Z,99.90
2022-07-29T22:19:08.629Z,99.90
2022-07-29T22:21:38.757Z,99.90
2022-07-29T22:24:10.230Z,99.90
2022-07-29T22:26:38.685Z,99.90
2022-07-29T22:29:07.325Z,99.90
2022-07-29T22:31:36.364Z,99.90
2022-07-29T22:34:04.767Z,99.90
2022-07-29T22:36:33.235Z,99.90
2022-07-29T22:39:03.105Z,99.90
2022-07-29T22:41:31.494Z,99.90
2022-07-29T22:44:02.335Z,99.90
2022-07-29T22:46:34.884Z,99.90
2022-07-29T22:49:05.740Z,99.90
2022-07-29T22:51:34.322Z,99.90
2022-07-29T22:54:06.443Z,99.90
2022-07-29T22:56:35.980Z,99.90
2022-07-29T22:59:04.433Z,99.90
2022-07-29T23:01:37.284Z,99.90
2022-07-29T23:04:06.746Z,99.90
2022-07-29T23:06:35.383Z,99.90
2022-07-29T23:09:04.168Z,99.90
2022-07-29T23:11:34.083Z,99.90
2022-07-29T23:14:02.502Z,99.90
2022-07-29T23:16:31.038Z,99.90
2022-07-29T23:18:59.443Z,99.90
2022-07-29T23:21:27.923Z,99.90
2022-07-29T23:23:56.373Z,99.90
2022-07-29T23:26:24.845Z,99.90
2022-07-29T23:28:54.882Z,99.90
2022-07-29T23:31:23.352Z,99.90
2022-07-29T23:33:52.843Z,99.90
2022-07-29T23:36:22.222Z,99.90
2022-07-29T23:38:50.682Z,99.90
2022-07-29T23:41:19.356Z,99.90
2022-07-29T23:43:49.932Z,99.90
2022-07-29T23:46:23.937Z,99.90
2022-07-29T23:48:52.703Z,99.90
2022-07-29T23:51:21.323Z,99.90
2022-07-29T23:53:53.035Z,99.90
2022-07-29T23:56:22.783Z,99.90
2022-07-29T23:58:51.233Z,99.90
